Impacts TAF Board
For situational awareness. Not to be used for flight planning purposes.
IDs:

KTPA - Tampa Intl Arpt, FL, US

Issued at 2056 UTC 18 Nov 2018
Updated at 2321 UTC 18 Nov 2018
Potential Impact None Slight Moderate High
Time<<19/12Z 19/13Z 19/14Z 19/15Z 19/16Z 19/17Z 19/18Z 19/19Z 19/20Z 19/21Z 19/22Z 19/23Z 20/00Z>>
Type PRVL PRVL PRVL PRVL PRVL PRVL PRVL PRVL PRVL PRVL PRVL PRVL
VIS >6 >6 >6 >6 >6 >6 >6 >6 >6 >6 >6 >6
CIG 100 100 50 50 50 50 50 80 80 80 80 80
Cover BKN BKN BKN BKN BKN BKN BKN BKN BKN BKN BKN BKN
FltCat VFR VFR VFR VFR VFR VFR VFR VFR VFR VFR VFR VFR
WX -- -- -- -- -- -- -- -- -- -- -- --
WDir VRB VRB 30 30 30 30 30 290 290 290 290 290
WSpd 3 3 5 5 5 5 5 7 7 7 7 7
WGst -- -- -- -- -- -- -- -- -- -- -- --
Raw TAF
KTPA 182056Z 1821/1924 VRB06KT P6SM SCT060 BKN250
  FM190200 VRB03KT P6SM SCT050 BKN100
  FM191400 03005KT P6SM BKN050
  FM191900 29007KT P6SM SCT030 BKN080


METAR Board
Radar Display
Forecast Discussion
For situational awareness. Not to be used for flight planning purposes.